sensor_id;sensor_type;location;lat;lon;timestamp;P1;durP1;ratioP1;P2;durP2;ratioP2
18190;SDS011;47004;51.366;12.348;2022-08-19T00:01:38;42.47;;;23.83;;
18190;SDS011;47004;51.366;12.348;2022-08-19T00:03:43;42.73;;;22.90;;
18190;SDS011;47004;51.366;12.348;2022-08-19T00:05:45;37.60;;;21.63;;
18190;SDS011;47004;51.366;12.348;2022-08-19T00:07:47;43.83;;;24.23;;
18190;SDS011;47004;51.366;12.348;2022-08-19T00:09:48;47.90;;;25.57;;
18190;SDS011;47004;51.366;12.348;2022-08-19T00:11:51;56.17;;;28.00;;
18190;SDS011;47004;51.366;12.348;2022-08-19T00:13:55;48.87;;;27.70;;
18190;SDS011;47004;51.366;12.348;2022-08-19T00:15:57;46.47;;;25.73;;
18190;SDS011;47004;51.366;12.348;2022-08-19T00:18:00;54.70;;;29.00;;
18190;SDS011;47004;51.366;12.348;2022-08-19T00:20:04;53.30;;;28.20;;
18190;SDS011;47004;51.366;12.348;2022-08-19T00:22:06;48.40;;;26.63;;
18190;SDS011;47004;51.366;12.348;2022-08-19T00:24:09;45.67;;;26.07;;
18190;SDS011;47004;51.366;12.348;2022-08-19T00:26:13;44.53;;;24.90;;
18190;SDS011;47004;51.366;12.348;2022-08-19T00:28:15;49.53;;;26.47;;
18190;SDS011;47004;51.366;12.348;2022-08-19T00:30:17;61.43;;;31.23;;
18190;SDS011;47004;51.366;12.348;2022-08-19T00:32:19;61.10;;;30.37;;
18190;SDS011;47004;51.366;12.348;2022-08-19T00:34:22;64.50;;;31.70;;
18190;SDS011;47004;51.366;12.348;2022-08-19T00:36:26;59.00;;;31.20;;
18190;SDS011;47004;51.366;12.348;2022-08-19T00:38:28;60.57;;;30.47;;
18190;SDS011;47004;51.366;12.348;2022-08-19T00:40:30;64.73;;;31.63;;
18190;SDS011;47004;51.366;12.348;2022-08-19T00:42:32;68.13;;;34.70;;
18190;SDS011;47004;51.366;12.348;2022-08-19T00:44:34;69.43;;;34.63;;
18190;SDS011;47004;51.366;12.348;2022-08-19T00:46:37;68.60;;;33.50;;
18190;SDS011;47004;51.366;12.348;2022-08-19T00:48:40;69.20;;;35.20;;
18190;SDS011;47004;51.366;12.348;2022-08-19T00:50:43;83.23;;;34.17;;
18190;SDS011;47004;51.366;12.348;2022-08-19T00:52:49;69.17;;;33.73;;
18190;SDS011;47004;51.366;12.348;2022-08-19T00:54:52;66.23;;;33.57;;
18190;SDS011;47004;51.366;12.348;2022-08-19T00:56:54;74.97;;;35.67;;
18190;SDS011;47004;51.366;12.348;2022-08-19T00:58:56;72.57;;;34.37;;
18190;SDS011;47004;51.366;12.348;2022-08-19T01:00:59;72.27;;;34.67;;
18190;SDS011;47004;51.366;12.348;2022-08-19T01:03:01;67.43;;;33.03;;
18190;SDS011;47004;51.366;12.348;2022-08-19T01:05:05;64.47;;;31.87;;
18190;SDS011;47004;51.366;12.348;2022-08-19T01:07:10;72.10;;;33.53;;
18190;SDS011;47004;51.366;12.348;2022-08-19T01:09:14;63.57;;;31.07;;
18190;SDS011;47004;51.366;12.348;2022-08-19T01:11:16;61.33;;;31.03;;
18190;SDS011;47004;51.366;12.348;2022-08-19T01:13:19;70.60;;;32.27;;
18190;SDS011;47004;51.366;12.348;2022-08-19T01:15:24;75.30;;;34.40;;
18190;SDS011;47004;51.366;12.348;2022-08-19T01:17:29;66.40;;;32.87;;
18190;SDS011;47004;51.366;12.348;2022-08-19T01:19:33;76.03;;;35.57;;
18190;SDS011;47004;51.366;12.348;2022-08-19T01:21:39;81.37;;;36.53;;
18190;SDS011;47004;51.366;12.348;2022-08-19T01:23:46;86.70;;;36.27;;
18190;SDS011;47004;51.366;12.348;2022-08-19T01:25:49;71.67;;;33.43;;
18190;SDS011;47004;51.366;12.348;2022-08-19T01:27:52;79.13;;;35.53;;
18190;SDS011;47004;51.366;12.348;2022-08-19T01:29:55;74.67;;;34.37;;
18190;SDS011;47004;51.366;12.348;2022-08-19T01:31:57;69.43;;;31.73;;
18190;SDS011;47004;51.366;12.348;2022-08-19T01:34:00;78.77;;;35.50;;
18190;SDS011;47004;51.366;12.348;2022-08-19T01:36:05;74.63;;;34.40;;
18190;SDS011;47004;51.366;12.348;2022-08-19T01:38:09;71.10;;;33.17;;
18190;SDS011;47004;51.366;12.348;2022-08-19T01:40:22;79.53;;;36.03;;
18190;SDS011;47004;51.366;12.348;2022-08-19T01:42:27;69.63;;;33.80;;
18190;SDS011;47004;51.366;12.348;2022-08-19T01:44:32;74.83;;;35.83;;
18190;SDS011;47004;51.366;12.348;2022-08-19T01:46:36;81.37;;;36.20;;
18190;SDS011;47004;51.366;12.348;2022-08-19T01:48:39;76.37;;;35.07;;
18190;SDS011;47004;51.366;12.348;2022-08-19T01:50:42;85.90;;;37.13;;
18190;SDS011;47004;51.366;12.348;2022-08-19T01:52:44;79.70;;;35.90;;
18190;SDS011;47004;51.366;12.348;2022-08-19T01:54:46;83.47;;;36.73;;
18190;SDS011;47004;51.366;12.348;2022-08-19T01:56:50;84.53;;;36.33;;
18190;SDS011;47004;51.366;12.348;2022-08-19T01:58:53;73.90;;;34.27;;
18190;SDS011;47004;51.366;12.348;2022-08-19T02:00:57;72.27;;;34.07;;
18190;SDS011;47004;51.366;12.348;2022-08-19T02:03:00;72.17;;;34.70;;
18190;SDS011;47004;51.366;12.348;2022-08-19T02:05:02;81.13;;;37.00;;
18190;SDS011;47004;51.366;12.348;2022-08-19T02:07:05;86.90;;;38.03;;
18190;SDS011;47004;51.366;12.348;2022-08-19T02:09:07;83.07;;;38.37;;
18190;SDS011;47004;51.366;12.348;2022-08-19T02:11:10;88.17;;;39.40;;
18190;SDS011;47004;51.366;12.348;2022-08-19T02:13:21;87.37;;;39.17;;
18190;SDS011;47004;51.366;12.348;2022-08-19T02:15:26;86.00;;;39.07;;
18190;SDS011;47004;51.366;12.348;2022-08-19T02:17:28;88.77;;;38.80;;
18190;SDS011;47004;51.366;12.348;2022-08-19T02:19:31;89.00;;;39.13;;
18190;SDS011;47004;51.366;12.348;2022-08-19T02:21:33;79.90;;;37.73;;
18190;SDS011;47004;51.366;12.348;2022-08-19T02:23:35;86.53;;;38.43;;
18190;SDS011;47004;51.366;12.348;2022-08-19T02:25:37;87.73;;;38.30;;
18190;SDS011;47004;51.366;12.348;2022-08-19T02:27:40;80.80;;;36.73;;
18190;SDS011;47004;51.366;12.348;2022-08-19T02:29:44;81.20;;;37.73;;
18190;SDS011;47004;51.366;12.348;2022-08-19T02:31:47;89.60;;;39.93;;
18190;SDS011;47004;51.366;12.348;2022-08-19T02:33:49;88.10;;;40.33;;
18190;SDS011;47004;51.366;12.348;2022-08-19T02:35:52;84.57;;;38.13;;
18190;SDS011;47004;51.366;12.348;2022-08-19T02:37:54;83.83;;;38.87;;
18190;SDS011;47004;51.366;12.348;2022-08-19T02:40:13;81.97;;;37.30;;
18190;SDS011;47004;51.366;12.348;2022-08-19T02:42:17;77.37;;;36.57;;
18190;SDS011;47004;51.366;12.348;2022-08-19T02:44:19;74.27;;;34.73;;
18190;SDS011;47004;51.366;12.348;2022-08-19T02:46:23;85.00;;;37.73;;
18190;SDS011;47004;51.366;12.348;2022-08-19T02:48:27;73.03;;;35.43;;
18190;SDS011;47004;51.366;12.348;2022-08-19T02:50:29;74.07;;;35.73;;
18190;SDS011;47004;51.366;12.348;2022-08-19T02:52:31;78.20;;;37.70;;
18190;SDS011;47004;51.366;12.348;2022-08-19T02:54:34;81.90;;;37.10;;
18190;SDS011;47004;51.366;12.348;2022-08-19T02:56:36;79.70;;;36.33;;
18190;SDS011;47004;51.366;12.348;2022-08-19T02:58:40;79.17;;;37.23;;
18190;SDS011;47004;51.366;12.348;2022-08-19T03:00:43;78.30;;;37.80;;
18190;SDS011;47004;51.366;12.348;2022-08-19T03:02:47;73.07;;;35.93;;
18190;SDS011;47004;51.366;12.348;2022-08-19T03:04:49;67.83;;;33.13;;
18190;SDS011;47004;51.366;12.348;2022-08-19T03:06:51;69.47;;;33.90;;
18190;SDS011;47004;51.366;12.348;2022-08-19T03:08:54;70.33;;;33.87;;
18190;SDS011;47004;51.366;12.348;2022-08-19T03:10:56;79.80;;;36.33;;
18190;SDS011;47004;51.366;12.348;2022-08-19T03:12:58;81.37;;;37.63;;
18190;SDS011;47004;51.366;12.348;2022-08-19T03:15:00;76.03;;;36.37;;
18190;SDS011;47004;51.366;12.348;2022-08-19T03:17:02;78.17;;;36.77;;
18190;SDS011;47004;51.366;12.348;2022-08-19T03:19:06;62.20;;;32.80;;
18190;SDS011;47004;51.366;12.348;2022-08-19T03:21:08;58.07;;;30.37;;
18190;SDS011;47004;51.366;12.348;2022-08-19T03:23:16;53.10;;;28.40;;
18190;SDS011;47004;51.366;12.348;2022-08-19T03:25:18;55.63;;;29.20;;
18190;SDS011;47004;51.366;12.348;2022-08-19T03:27:20;48.47;;;27.63;;
18190;SDS011;47004;51.366;12.348;2022-08-19T03:29:22;43.67;;;24.83;;
18190;SDS011;47004;51.366;12.348;2022-08-19T03:31:26;44.33;;;25.23;;
18190;SDS011;47004;51.366;12.348;2022-08-19T03:33:28;42.17;;;24.33;;
18190;SDS011;47004;51.366;12.348;2022-08-19T03:35:32;46.63;;;26.47;;
18190;SDS011;47004;51.366;12.348;2022-08-19T03:37:36;47.50;;;26.00;;
18190;SDS011;47004;51.366;12.348;2022-08-19T03:39:38;42.13;;;24.23;;
18190;SDS011;47004;51.366;12.348;2022-08-19T03:41:42;37.37;;;22.37;;
18190;SDS011;47004;51.366;12.348;2022-08-19T03:43:46;45.93;;;26.10;;
18190;SDS011;47004;51.366;12.348;2022-08-19T03:45:58;42.30;;;23.77;;
18190;SDS011;47004;51.366;12.348;2022-08-19T03:48:04;35.57;;;22.10;;
18190;SDS011;47004;51.366;12.348;2022-08-19T03:50:06;42.87;;;24.30;;
18190;SDS011;47004;51.366;12.348;2022-08-19T03:52:10;43.23;;;23.53;;
18190;SDS011;47004;51.366;12.348;2022-08-19T03:54:12;42.83;;;23.33;;
18190;SDS011;47004;51.366;12.348;2022-08-19T03:56:15;38.03;;;22.33;;
18190;SDS011;47004;51.366;12.348;2022-08-19T03:58:18;46.37;;;26.07;;
18190;SDS011;47004;51.366;12.348;2022-08-19T04:00:20;45.33;;;25.53;;
18190;SDS011;47004;51.366;12.348;2022-08-19T04:02:22;45.80;;;25.70;;
18190;SDS011;47004;51.366;12.348;2022-08-19T04:04:24;57.57;;;29.00;;
18190;SDS011;47004;51.366;12.348;2022-08-19T04:06:27;50.50;;;26.80;;
18190;SDS011;47004;51.366;12.348;2022-08-19T04:08:32;50.97;;;26.57;;
18190;SDS011;47004;51.366;12.348;2022-08-19T04:10:34;49.40;;;27.03;;
18190;SDS011;47004;51.366;12.348;2022-08-19T04:12:37;61.00;;;30.23;;
18190;SDS011;47004;51.366;12.348;2022-08-19T04:14:39;55.63;;;29.97;;
18190;SDS011;47004;51.366;12.348;2022-08-19T04:16:41;58.63;;;30.83;;
18190;SDS011;47004;51.366;12.348;2022-08-19T04:18:44;72.50;;;36.20;;
18190;SDS011;47004;51.366;12.348;2022-08-19T04:20:46;78.77;;;37.20;;
18190;SDS011;47004;51.366;12.348;2022-08-19T04:22:49;69.73;;;34.27;;
18190;SDS011;47004;51.366;12.348;2022-08-19T04:24:52;73.03;;;35.17;;
18190;SDS011;47004;51.366;12.348;2022-08-19T04:26:54;71.03;;;33.80;;
18190;SDS011;47004;51.366;12.348;2022-08-19T04:28:56;71.50;;;35.03;;
18190;SDS011;47004;51.366;12.348;2022-08-19T04:30:58;78.67;;;36.60;;
18190;SDS011;47004;51.366;12.348;2022-08-19T04:32:59;83.87;;;38.57;;
18190;SDS011;47004;51.366;12.348;2022-08-19T04:35:01;83.17;;;39.23;;
18190;SDS011;47004;51.366;12.348;2022-08-19T04:37:04;77.20;;;36.93;;
18190;SDS011;47004;51.366;12.348;2022-08-19T04:39:12;80.70;;;37.97;;
18190;SDS011;47004;51.366;12.348;2022-08-19T04:41:17;83.87;;;38.60;;
18190;SDS011;47004;51.366;12.348;2022-08-19T04:43:37;96.83;;;41.57;;
18190;SDS011;47004;51.366;12.348;2022-08-19T04:45:39;85.13;;;39.70;;
18190;SDS011;47004;51.366;12.348;2022-08-19T04:47:42;100.83;;;44.10;;
18190;SDS011;47004;51.366;12.348;2022-08-19T04:49:44;100.33;;;43.33;;
18190;SDS011;47004;51.366;12.348;2022-08-19T04:51:46;98.97;;;43.10;;
18190;SDS011;47004;51.366;12.348;2022-08-19T04:53:49;106.80;;;44.90;;
18190;SDS011;47004;51.366;12.348;2022-08-19T04:55:52;97.87;;;43.77;;
18190;SDS011;47004;51.366;12.348;2022-08-19T04:57:55;93.50;;;43.37;;
18190;SDS011;47004;51.366;12.348;2022-08-19T04:59:57;101.47;;;43.70;;
18190;SDS011;47004;51.366;12.348;2022-08-19T05:02:00;90.30;;;41.40;;
18190;SDS011;47004;51.366;12.348;2022-08-19T05:04:02;90.00;;;40.70;;
18190;SDS011;47004;51.366;12.348;2022-08-19T05:06:07;90.13;;;39.37;;
18190;SDS011;47004;51.366;12.348;2022-08-19T05:08:10;95.83;;;41.83;;
18190;SDS011;47004;51.366;12.348;2022-08-19T05:10:12;91.87;;;40.87;;
18190;SDS011;47004;51.366;12.348;2022-08-19T05:12:14;96.47;;;41.87;;
18190;SDS011;47004;51.366;12.348;2022-08-19T05:14:18;92.73;;;41.00;;
18190;SDS011;47004;51.366;12.348;2022-08-19T05:16:22;104.07;;;43.27;;
18190;SDS011;47004;51.366;12.348;2022-08-19T05:18:25;107.83;;;44.80;;
18190;SDS011;47004;51.366;12.348;2022-08-19T05:20:44;103.47;;;43.90;;
18190;SDS011;47004;51.366;12.348;2022-08-19T05:23:04;101.40;;;42.60;;
18190;SDS011;47004;51.366;12.348;2022-08-19T05:25:07;103.17;;;43.93;;
18190;SDS011;47004;51.366;12.348;2022-08-19T05:27:12;107.40;;;43.40;;
18190;SDS011;47004;51.366;12.348;2022-08-19T05:29:14;113.63;;;45.23;;
18190;SDS011;47004;51.366;12.348;2022-08-19T05:31:19;118.70;;;46.03;;
18190;SDS011;47004;51.366;12.348;2022-08-19T05:33:21;117.33;;;46.03;;
18190;SDS011;47004;51.366;12.348;2022-08-19T05:35:24;107.83;;;44.10;;
18190;SDS011;47004;51.366;12.348;2022-08-19T05:37:26;120.37;;;47.33;;
18190;SDS011;47004;51.366;12.348;2022-08-19T05:39:29;122.13;;;48.57;;
18190;SDS011;47004;51.366;12.348;2022-08-19T05:41:32;140.40;;;51.23;;
18190;SDS011;47004;51.366;12.348;2022-08-19T05:43:34;110.33;;;46.10;;
18190;SDS011;47004;51.366;12.348;2022-08-19T05:45:40;127.67;;;47.77;;
18190;SDS011;47004;51.366;12.348;2022-08-19T05:47:44;126.50;;;49.13;;
18190;SDS011;47004;51.366;12.348;2022-08-19T05:49:46;124.87;;;49.87;;
18190;SDS011;47004;51.366;12.348;2022-08-19T05:51:49;122.23;;;48.47;;
18190;SDS011;47004;51.366;12.348;2022-08-19T05:53:52;118.50;;;48.63;;
18190;SDS011;47004;51.366;12.348;2022-08-19T05:55:53;122.17;;;48.47;;
18190;SDS011;47004;51.366;12.348;2022-08-19T05:57:55;107.33;;;46.07;;
18190;SDS011;47004;51.366;12.348;2022-08-19T05:59:57;121.53;;;48.73;;
18190;SDS011;47004;51.366;12.348;2022-08-19T06:02:02;115.67;;;48.83;;
18190;SDS011;47004;51.366;12.348;2022-08-19T06:04:06;118.07;;;49.70;;
18190;SDS011;47004;51.366;12.348;2022-08-19T06:06:09;110.33;;;47.87;;
18190;SDS011;47004;51.366;12.348;2022-08-19T06:08:13;108.90;;;46.63;;
18190;SDS011;47004;51.366;12.348;2022-08-19T06:10:15;119.60;;;47.80;;
18190;SDS011;47004;51.366;12.348;2022-08-19T06:12:17;109.83;;;46.60;;
18190;SDS011;47004;51.366;12.348;2022-08-19T06:14:20;121.03;;;50.37;;
18190;SDS011;47004;51.366;12.348;2022-08-19T06:16:24;117.33;;;49.87;;
18190;SDS011;47004;51.366;12.348;2022-08-19T06:18:26;113.37;;;48.97;;
18190;SDS011;47004;51.366;12.348;2022-08-19T06:20:30;96.13;;;44.67;;
18190;SDS011;47004;51.366;12.348;2022-08-19T06:22:36;103.93;;;45.27;;
18190;SDS011;47004;51.366;12.348;2022-08-19T06:24:39;111.73;;;46.70;;
18190;SDS011;47004;51.366;12.348;2022-08-19T06:26:42;113.80;;;47.67;;
18190;SDS011;47004;51.366;12.348;2022-08-19T06:28:46;110.47;;;47.50;;
18190;SDS011;47004;51.366;12.348;2022-08-19T06:30:49;140.73;;;51.77;;
18190;SDS011;47004;51.366;12.348;2022-08-19T06:32:51;126.57;;;50.53;;
18190;SDS011;47004;51.366;12.348;2022-08-19T06:34:53;130.93;;;51.20;;
18190;SDS011;47004;51.366;12.348;2022-08-19T06:36:57;108.87;;;46.80;;
18190;SDS011;47004;51.366;12.348;2022-08-19T06:39:01;124.90;;;50.47;;
18190;SDS011;47004;51.366;12.348;2022-08-19T06:41:05;121.20;;;49.33;;
18190;SDS011;47004;51.366;12.348;2022-08-19T06:43:08;102.97;;;44.13;;
18190;SDS011;47004;51.366;12.348;2022-08-19T06:45:10;123.27;;;49.47;;
18190;SDS011;47004;51.366;12.348;2022-08-19T06:47:13;123.33;;;50.50;;
18190;SDS011;47004;51.366;12.348;2022-08-19T06:49:17;117.63;;;49.13;;
18190;SDS011;47004;51.366;12.348;2022-08-19T06:51:20;124.57;;;50.43;;
18190;SDS011;47004;51.366;12.348;2022-08-19T06:53:25;126.13;;;51.43;;
18190;SDS011;47004;51.366;12.348;2022-08-19T06:55:29;108.13;;;45.97;;
18190;SDS011;47004;51.366;12.348;2022-08-19T06:57:31;107.87;;;46.90;;
18190;SDS011;47004;51.366;12.348;2022-08-19T06:59:33;96.43;;;43.27;;
18190;SDS011;47004;51.366;12.348;2022-08-19T07:01:35;124.03;;;47.27;;
18190;SDS011;47004;51.366;12.348;2022-08-19T07:03:38;94.67;;;41.97;;
18190;SDS011;47004;51.366;12.348;2022-08-19T07:05:40;92.77;;;42.93;;
18190;SDS011;47004;51.366;12.348;2022-08-19T07:07:42;108.00;;;45.13;;
18190;SDS011;47004;51.366;12.348;2022-08-19T07:09:46;118.40;;;48.33;;
18190;SDS011;47004;51.366;12.348;2022-08-19T07:11:49;108.93;;;44.43;;
18190;SDS011;47004;51.366;12.348;2022-08-19T07:13:52;104.33;;;44.57;;
18190;SDS011;47004;51.366;12.348;2022-08-19T07:15:55;121.13;;;46.60;;
18190;SDS011;47004;51.366;12.348;2022-08-19T07:17:57;105.73;;;44.50;;
18190;SDS011;47004;51.366;12.348;2022-08-19T07:19:59;118.67;;;46.63;;
18190;SDS011;47004;51.366;12.348;2022-08-19T07:22:01;99.80;;;42.67;;
18190;SDS011;47004;51.366;12.348;2022-08-19T07:24:04;102.37;;;42.67;;
18190;SDS011;47004;51.366;12.348;2022-08-19T07:26:08;109.67;;;46.10;;
18190;SDS011;47004;51.366;12.348;2022-08-19T07:28:12;97.10;;;42.77;;
18190;SDS011;47004;51.366;12.348;2022-08-19T07:30:14;101.23;;;44.03;;
18190;SDS011;47004;51.366;12.348;2022-08-19T07:32:16;99.77;;;43.57;;
18190;SDS011;47004;51.366;12.348;2022-08-19T07:34:18;100.10;;;43.67;;
18190;SDS011;47004;51.366;12.348;2022-08-19T07:36:21;113.60;;;45.20;;
18190;SDS011;47004;51.366;12.348;2022-08-19T07:38:25;117.57;;;44.97;;
18190;SDS011;47004;51.366;12.348;2022-08-19T07:40:27;101.03;;;43.60;;
18190;SDS011;47004;51.366;12.348;2022-08-19T07:42:30;103.97;;;43.43;;
18190;SDS011;47004;51.366;12.348;2022-08-19T07:44:32;102.87;;;42.43;;
18190;SDS011;47004;51.366;12.348;2022-08-19T07:46:35;106.43;;;43.93;;
18190;SDS011;47004;51.366;12.348;2022-08-19T07:48:38;89.53;;;41.70;;
18190;SDS011;47004;51.366;12.348;2022-08-19T07:50:42;91.23;;;41.63;;
18190;SDS011;47004;51.366;12.348;2022-08-19T07:52:44;86.47;;;39.80;;
18190;SDS011;47004;51.366;12.348;2022-08-19T07:54:46;75.50;;;36.33;;
18190;SDS011;47004;51.366;12.348;2022-08-19T07:56:49;82.70;;;36.93;;
18190;SDS011;47004;51.366;12.348;2022-08-19T07:58:54;88.07;;;40.93;;
18190;SDS011;47004;51.366;12.348;2022-08-19T08:00:56;95.10;;;42.00;;
18190;SDS011;47004;51.366;12.348;2022-08-19T08:02:57;84.40;;;40.70;;
18190;SDS011;47004;51.366;12.348;2022-08-19T08:04:59;82.63;;;39.70;;
18190;SDS011;47004;51.366;12.348;2022-08-19T08:07:15;80.73;;;39.37;;
18190;SDS011;47004;51.366;12.348;2022-08-19T08:09:37;82.87;;;38.77;;
18190;SDS011;47004;51.366;12.348;2022-08-19T08:11:42;80.23;;;39.00;;
18190;SDS011;47004;51.366;12.348;2022-08-19T08:13:48;96.03;;;41.23;;
18190;SDS011;47004;51.366;12.348;2022-08-19T08:15:52;88.00;;;40.83;;
18190;SDS011;47004;51.366;12.348;2022-08-19T08:17:55;82.20;;;39.20;;
18190;SDS011;47004;51.366;12.348;2022-08-19T08:19:57;78.93;;;38.80;;
18190;SDS011;47004;51.366;12.348;2022-08-19T08:22:00;74.23;;;37.17;;
18190;SDS011;47004;51.366;12.348;2022-08-19T08:24:02;76.10;;;38.77;;
18190;SDS011;47004;51.366;12.348;2022-08-19T08:26:03;75.07;;;37.27;;
18190;SDS011;47004;51.366;12.348;2022-08-19T08:28:05;80.93;;;39.90;;
18190;SDS011;47004;51.366;12.348;2022-08-19T08:30:09;71.53;;;36.73;;
18190;SDS011;47004;51.366;12.348;2022-08-19T08:32:15;69.00;;;36.13;;
18190;SDS011;47004;51.366;12.348;2022-08-19T08:34:17;70.90;;;37.50;;
18190;SDS011;47004;51.366;12.348;2022-08-19T08:36:19;67.73;;;34.63;;
18190;SDS011;47004;51.366;12.348;2022-08-19T08:38:23;72.67;;;37.87;;
18190;SDS011;47004;51.366;12.348;2022-08-19T08:40:27;74.37;;;38.40;;
18190;SDS011;47004;51.366;12.348;2022-08-19T08:42:34;80.57;;;39.80;;
18190;SDS011;47004;51.366;12.348;2022-08-19T08:44:46;70.47;;;37.30;;
18190;SDS011;47004;51.366;12.348;2022-08-19T08:46:53;64.67;;;35.03;;
18190;SDS011;47004;51.366;12.348;2022-08-19T08:49:02;62.97;;;34.50;;
18190;SDS011;47004;51.366;12.348;2022-08-19T08:51:09;65.53;;;34.30;;
18190;SDS011;47004;51.366;12.348;2022-08-19T08:53:14;61.90;;;33.77;;
18190;SDS011;47004;51.366;12.348;2022-08-19T08:55:19;71.07;;;36.70;;
18190;SDS011;47004;51.366;12.348;2022-08-19T08:57:26;71.03;;;36.90;;
18190;SDS011;47004;51.366;12.348;2022-08-19T08:59:31;72.23;;;37.07;;
18190;SDS011;47004;51.366;12.348;2022-08-19T09:01:36;70.80;;;36.23;;
18190;SDS011;47004;51.366;12.348;2022-08-19T09:03:39;77.40;;;37.80;;
18190;SDS011;47004;51.366;12.348;2022-08-19T09:05:46;75.53;;;38.37;;
18190;SDS011;47004;51.366;12.348;2022-08-19T09:07:57;83.93;;;39.83;;
18190;SDS011;47004;51.366;12.348;2022-08-19T09:10:07;85.00;;;39.50;;
18190;SDS011;47004;51.366;12.348;2022-08-19T09:12:19;67.07;;;36.20;;
18190;SDS011;47004;51.366;12.348;2022-08-19T09:14:34;68.00;;;35.83;;
18190;SDS011;47004;51.366;12.348;2022-08-19T09:16:41;70.57;;;37.80;;
18190;SDS011;47004;51.366;12.348;2022-08-19T09:18:43;74.80;;;36.63;;
18190;SDS011;47004;51.366;12.348;2022-08-19T09:20:48;75.87;;;37.37;;
18190;SDS011;47004;51.366;12.348;2022-08-19T09:22:50;72.03;;;36.93;;
18190;SDS011;47004;51.366;12.348;2022-08-19T09:24:52;70.40;;;35.93;;
18190;SDS011;47004;51.366;12.348;2022-08-19T09:26:55;62.97;;;35.23;;
18190;SDS011;47004;51.366;12.348;2022-08-19T09:28:57;65.57;;;36.27;;
18190;SDS011;47004;51.366;12.348;2022-08-19T09:30:59;68.93;;;35.83;;
18190;SDS011;47004;51.366;12.348;2022-08-19T09:33:01;75.10;;;37.90;;
18190;SDS011;47004;51.366;12.348;2022-08-19T09:35:03;63.33;;;35.93;;
18190;SDS011;47004;51.366;12.348;2022-08-19T09:37:07;65.27;;;36.50;;
18190;SDS011;47004;51.366;12.348;2022-08-19T09:39:09;74.33;;;38.07;;
18190;SDS011;47004;51.366;12.348;2022-08-19T09:41:12;70.97;;;38.90;;
18190;SDS011;47004;51.366;12.348;2022-08-19T09:43:15;78.97;;;39.47;;
18190;SDS011;47004;51.366;12.348;2022-08-19T09:45:19;67.57;;;36.83;;
18190;SDS011;47004;51.366;12.348;2022-08-19T09:47:22;67.70;;;36.73;;
18190;SDS011;47004;51.366;12.348;2022-08-19T09:49:24;69.27;;;37.20;;
18190;SDS011;47004;51.366;12.348;2022-08-19T09:51:26;74.53;;;36.83;;
18190;SDS011;47004;51.366;12.348;2022-08-19T09:53:30;68.67;;;35.10;;
18190;SDS011;47004;51.366;12.348;2022-08-19T09:55:32;73.37;;;36.13;;
18190;SDS011;47004;51.366;12.348;2022-08-19T09:57:35;62.33;;;33.93;;
18190;SDS011;47004;51.366;12.348;2022-08-19T09:59:38;65.13;;;35.43;;
18190;SDS011;47004;51.366;12.348;2022-08-19T10:01:41;69.87;;;35.47;;
18190;SDS011;47004;51.366;12.348;2022-08-19T10:03:43;63.83;;;33.93;;
18190;SDS011;47004;51.366;12.348;2022-08-19T10:05:47;58.63;;;32.57;;
18190;SDS011;47004;51.366;12.348;2022-08-19T10:07:48;56.63;;;30.97;;
18190;SDS011;47004;51.366;12.348;2022-08-19T10:09:51;53.60;;;30.47;;
18190;SDS011;47004;51.366;12.348;2022-08-19T10:11:54;51.20;;;30.40;;
18190;SDS011;47004;51.366;12.348;2022-08-19T10:13:56;54.73;;;31.30;;
18190;SDS011;47004;51.366;12.348;2022-08-19T10:16:02;51.47;;;29.83;;
18190;SDS011;47004;51.366;12.348;2022-08-19T10:18:06;54.60;;;30.17;;
18190;SDS011;47004;51.366;12.348;2022-08-19T10:20:09;47.23;;;29.67;;
18190;SDS011;47004;51.366;12.348;2022-08-19T10:22:11;48.20;;;28.87;;
18190;SDS011;47004;51.366;12.348;2022-08-19T10:24:14;47.07;;;27.97;;
18190;SDS011;47004;51.366;12.348;2022-08-19T10:26:18;45.83;;;27.10;;
18190;SDS011;47004;51.366;12.348;2022-08-19T10:28:22;44.33;;;27.47;;
18190;SDS011;47004;51.366;12.348;2022-08-19T10:30:24;41.93;;;27.13;;
18190;SDS011;47004;51.366;12.348;2022-08-19T10:32:25;45.00;;;27.50;;
18190;SDS011;47004;51.366;12.348;2022-08-19T10:34:29;38.87;;;25.47;;
18190;SDS011;47004;51.366;12.348;2022-08-19T10:36:32;38.67;;;24.30;;
18190;SDS011;47004;51.366;12.348;2022-08-19T10:38:36;37.43;;;24.23;;
18190;SDS011;47004;51.366;12.348;2022-08-19T10:40:38;39.83;;;25.13;;
18190;SDS011;47004;51.366;12.348;2022-08-19T10:42:41;41.90;;;25.53;;
18190;SDS011;47004;51.366;12.348;2022-08-19T10:44:43;33.30;;;23.10;;
18190;SDS011;47004;51.366;12.348;2022-08-19T10:46:46;34.97;;;23.00;;
18190;SDS011;47004;51.366;12.348;2022-08-19T10:48:48;35.10;;;23.50;;
18190;SDS011;47004;51.366;12.348;2022-08-19T10:50:50;36.80;;;21.60;;
18190;SDS011;47004;51.366;12.348;2022-08-19T10:53:10;36.20;;;21.10;;
18190;SDS011;47004;51.366;12.348;2022-08-19T10:55:12;36.40;;;23.30;;
18190;SDS011;47004;51.366;12.348;2022-08-19T10:57:31;36.07;;;22.13;;
18190;SDS011;47004;51.366;12.348;2022-08-19T10:59:35;36.20;;;22.47;;
18190;SDS011;47004;51.366;12.348;2022-08-19T11:01:37;38.10;;;23.20;;
18190;SDS011;47004;51.366;12.348;2022-08-19T11:03:39;34.93;;;21.53;;
18190;SDS011;47004;51.366;12.348;2022-08-19T11:05:41;35.03;;;22.53;;
18190;SDS011;47004;51.366;12.348;2022-08-19T11:07:43;39.57;;;21.83;;
18190;SDS011;47004;51.366;12.348;2022-08-19T11:09:46;30.53;;;20.40;;
18190;SDS011;47004;51.366;12.348;2022-08-19T11:11:47;30.60;;;20.20;;
18190;SDS011;47004;51.366;12.348;2022-08-19T11:13:51;29.63;;;19.87;;
18190;SDS011;47004;51.366;12.348;2022-08-19T11:15:58;30.80;;;19.30;;
18190;SDS011;47004;51.366;12.348;2022-08-19T11:18:01;34.00;;;17.90;;
18190;SDS011;47004;51.366;12.348;2022-08-19T11:20:03;30.80;;;17.57;;
18190;SDS011;47004;51.366;12.348;2022-08-19T11:22:07;27.60;;;17.43;;
18190;SDS011;47004;51.366;12.348;2022-08-19T11:24:10;23.70;;;15.37;;
18190;SDS011;47004;51.366;12.348;2022-08-19T11:26:13;30.60;;;16.87;;
18190;SDS011;47004;51.366;12.348;2022-08-19T11:28:16;26.50;;;16.60;;
18190;SDS011;47004;51.366;12.348;2022-08-19T11:30:18;22.57;;;15.37;;
18190;SDS011;47004;51.366;12.348;2022-08-19T11:32:21;25.53;;;15.80;;
18190;SDS011;47004;51.366;12.348;2022-08-19T11:34:24;22.53;;;15.47;;
18190;SDS011;47004;51.366;12.348;2022-08-19T11:36:28;20.47;;;15.47;;
18190;SDS011;47004;51.366;12.348;2022-08-19T11:38:31;22.53;;;15.23;;
18190;SDS011;47004;51.366;12.348;2022-08-19T11:40:33;24.50;;;16.13;;
18190;SDS011;47004;51.366;12.348;2022-08-19T11:42:35;22.37;;;15.57;;
18190;SDS011;47004;51.366;12.348;2022-08-19T11:44:56;21.07;;;15.40;;
18190;SDS011;47004;51.366;12.348;2022-08-19T11:46:58;21.13;;;14.73;;
18190;SDS011;47004;51.366;12.348;2022-08-19T11:49:02;21.83;;;15.20;;
18190;SDS011;47004;51.366;12.348;2022-08-19T11:51:08;21.30;;;15.10;;